createdAt,value
2019-03-30T00:02:53.019Z,84.10
2019-03-30T00:07:57.418Z,84.10
2019-03-30T00:13:01.582Z,84.30
2019-03-30T00:18:10.116Z,84.20
2019-03-30T00:23:16.536Z,84.30
2019-03-30T00:28:19.975Z,84.40
2019-03-30T00:33:24.220Z,84.60
2019-03-30T00:38:27.664Z,84.50
2019-03-30T00:43:31.379Z,84.50
2019-03-30T00:48:37.543Z,84.30
2019-03-30T00:53:42.166Z,84.20
2019-03-30T00:58:49.132Z,84.00
2019-03-30T01:03:52.571Z,84.00
2019-03-30T01:08:56.133Z,83.90
2019-03-30T01:13:59.840Z,83.10
2019-03-30T01:19:10.957Z,82.50
2019-03-30T01:24:14.438Z,82.00
2019-03-30T01:29:17.871Z,81.60
2019-03-30T01:34:23.367Z,81.40
2019-03-30T01:39:26.803Z,81.20
2019-03-30T01:44:30.492Z,81.20
2019-03-30T01:49:33.944Z,81.00
2019-03-30T01:54:37.363Z,80.90
2019-03-30T01:59:41.018Z,80.70
2019-03-30T02:04:45.421Z,80.60
2019-03-30T02:09:48.837Z,80.50
2019-03-30T02:14:52.587Z,80.50
2019-03-30T02:19:56.037Z,80.30
2019-03-30T02:24:59.425Z,80.20
2019-03-30T02:30:02.757Z,80.20
2019-03-30T02:35:06.910Z,80.10
2019-03-30T02:40:10.665Z,80.20
2019-03-30T02:45:14.579Z,80.00
2019-03-30T02:50:17.984Z,80.00
2019-03-30T02:55:21.366Z,79.90
2019-03-30T03:00:24.738Z,79.80
2019-03-30T03:05:30.358Z,79.60
2019-03-30T03:10:34.486Z,79.50
2019-03-30T03:15:38.775Z,79.10
2019-03-30T03:20:42.197Z,79.20
2019-03-30T03:25:45.921Z,79.00
2019-03-30T03:30:49.929Z,78.80
2019-03-30T03:35:54.812Z,78.50
2019-03-30T03:40:58.878Z,78.30
2019-03-30T03:46:02.351Z,78.10
2019-03-30T03:51:05.782Z,77.90
2019-03-30T03:56:09.489Z,77.80
2019-03-30T04:01:12.841Z,77.90
2019-03-30T04:06:16.304Z,77.80
2019-03-30T04:11:20.584Z,77.80
2019-03-30T04:16:24.040Z,77.80
2019-03-30T04:21:42.899Z,77.80
2019-03-30T04:26:34.019Z,77.80
2019-03-30T04:31:37.764Z,77.70
2019-03-30T04:36:42.413Z,77.60
2019-03-30T04:41:46.045Z,77.40
2019-03-30T04:46:49.511Z,77.40
2019-03-30T04:51:57.815Z,77.10
2019-03-30T04:56:59.309Z,77.00
2019-03-30T05:02:05.962Z,77.50
2019-03-30T05:07:09.406Z,76.60
2019-03-30T05:12:13.236Z,76.50
2019-03-30T05:17:16.778Z,76.30
2019-03-30T05:22:20.143Z,76.00
2019-03-30T05:27:23.594Z,75.80
2019-03-30T05:32:28.764Z,75.20
2019-03-30T05:37:34.378Z,75.20
2019-03-30T05:42:49.472Z,75.20
2019-03-30T05:47:56.025Z,74.70
2019-03-30T05:53:02.265Z,74.70
2019-03-30T05:58:14.275Z,74.20
2019-03-30T06:09:37.290Z,73.60
2019-03-30T06:20:23.278Z,73.10
2019-03-30T06:31:20.993Z,72.70
2019-03-30T06:42:22.838Z,72.10
2019-03-30T06:47:28.431Z,71.20
2019-03-30T06:52:35.197Z,71.50
2019-03-30T06:57:41.497Z,71.40
2019-03-30T07:19:16.707Z,69.50
2019-03-30T07:24:22.473Z,69.10
2019-03-30T07:29:26.534Z,68.20
2019-03-30T07:34:31.289Z,68.40
2019-03-30T07:39:40.774Z,68.10
2019-03-30T07:55:34.316Z,66.70
2019-03-30T08:06:14.262Z,66.40
2019-03-30T08:22:43.559Z,65.30
2019-03-30T08:27:48.088Z,64.80
2019-03-30T08:32:51.584Z,64.50
2019-03-30T08:37:57.503Z,64.60
2019-03-30T08:43:04.708Z,64.00
2019-03-30T08:48:15.810Z,63.60
2019-03-30T08:53:24.157Z,63.50
2019-03-30T08:58:36.488Z,63.40
2019-03-30T09:03:46.643Z,63.20
2019-03-30T09:08:53.220Z,62.00
2019-03-30T09:13:59.988Z,61.60
2019-03-30T09:35:58.283Z,57.70
2019-03-30T09:41:02.336Z,55.90
2019-03-30T09:46:09.572Z,55.50
2019-03-30T09:51:14.714Z,54.70
2019-03-30T09:56:21.778Z,53.50
2019-03-30T10:01:42.488Z,48.70
2019-03-30T10:06:50.959Z,49.00
2019-03-30T10:11:59.102Z,49.20
2019-03-30T10:28:41.059Z,39.70
2019-03-30T10:44:46.291Z,26.60
2019-03-30T10:49:57.807Z,23.40
2019-03-30T10:55:02.588Z,24.30
2019-03-30T11:06:02.257Z,21.40
2019-03-30T11:11:15.125Z,19.60
2019-03-30T11:16:19.962Z,23.50
2019-03-30T11:21:24.692Z,23.50
2019-03-30T11:26:29.730Z,24.40
2019-03-30T11:31:46.297Z,21.40
2019-03-30T11:36:50.829Z,17.10
2019-03-30T11:41:56.562Z,14.80
2019-03-30T11:47:03.019Z,11.90
2019-03-30T11:52:17.647Z,13.20
2019-03-30T11:57:29.426Z,13.60
2019-03-30T12:02:41.069Z,13.10
2019-03-30T12:07:46.138Z,12.70
2019-03-30T12:12:54.156Z,12.40
2019-03-30T12:18:03.450Z,11.90
2019-03-30T12:23:11.739Z,12.30
2019-03-30T12:28:37.324Z,12.00
2019-03-30T12:33:54.888Z,11.70
2019-03-30T12:39:10.668Z,11.80
2019-03-30T12:44:15.506Z,11.80
2019-03-30T12:49:21.912Z,11.80
2019-03-30T12:54:43.574Z,11.60
2019-03-30T12:59:59.221Z,12.00
2019-03-30T13:05:12.068Z,11.90
2019-03-30T13:10:17.749Z,12.70
2019-03-30T13:15:21.165Z,13.60
2019-03-30T13:20:25.324Z,14.20
2019-03-30T13:25:29.766Z,14.00
2019-03-30T13:30:36.151Z,14.50
2019-03-30T13:35:40.519Z,15.00
2019-03-30T13:40:48.444Z,19.60
2019-03-30T13:45:53.821Z,23.30
2019-03-30T13:51:03.185Z,27.80
2019-03-30T13:56:17.173Z,30.40
2019-03-30T14:01:26.656Z,33.10
2019-03-30T14:06:34.829Z,34.40
2019-03-30T14:11:41.411Z,36.20
2019-03-30T14:16:46.797Z,37.20
2019-03-30T14:21:50.802Z,38.40
2019-03-30T14:27:01.926Z,38.90
2019-03-30T14:32:12.295Z,39.50
2019-03-30T14:37:16.289Z,40.40
2019-03-30T14:42:21.561Z,41.50
2019-03-30T14:47:38.907Z,42.50
2019-03-30T14:52:47.178Z,42.60
2019-03-30T14:57:58.085Z,43.10
2019-03-30T15:03:03.585Z,43.60
2019-03-30T15:08:08.738Z,43.70
2019-03-30T15:13:22.879Z,44.20
2019-03-30T15:18:37.109Z,45.10
2019-03-30T15:29:33.539Z,46.80
2019-03-30T15:34:37.902Z,48.20
2019-03-30T15:39:44.031Z,48.80
2019-03-30T15:50:54.725Z,49.50
2019-03-30T15:55:58.141Z,50.10
2019-03-30T16:01:02.201Z,50.80
2019-03-30T16:06:09.202Z,51.40
2019-03-30T16:11:14.382Z,52.20
2019-03-30T16:16:19.451Z,52.20
2019-03-30T16:21:25.326Z,52.60
2019-03-30T16:26:41.307Z,53.00
2019-03-30T16:31:36.375Z,53.50
2019-03-30T16:36:40.853Z,54.20
2019-03-30T16:41:44.342Z,55.00
2019-03-30T16:46:47.675Z,55.70
2019-03-30T16:51:52.249Z,56.00
2019-03-30T16:56:58.075Z,56.90
2019-03-30T17:02:01.925Z,57.10
2019-03-30T17:07:08.258Z,57.40
2019-03-30T17:12:11.680Z,58.60
2019-03-30T17:17:16.362Z,59.30
2019-03-30T17:22:20.461Z,59.60
2019-03-30T17:27:23.853Z,60.20
2019-03-30T17:32:29.276Z,61.00
2019-03-30T17:37:33.435Z,61.70
2019-03-30T17:42:39.354Z,62.10
2019-03-30T17:47:47.115Z,62.80
2019-03-30T17:52:50.528Z,63.30
2019-03-30T17:57:55.688Z,63.70
2019-03-30T18:02:58.992Z,63.90
2019-03-30T18:08:02.411Z,64.10
2019-03-30T18:13:06.719Z,64.10
2019-03-30T18:23:54.117Z,65.00
2019-03-30T18:28:57.252Z,65.30
2019-03-30T18:34:02.205Z,65.40
2019-03-30T18:39:09.938Z,65.70
2019-03-30T18:44:11.710Z,65.80
2019-03-30T18:49:23.229Z,66.20
2019-03-30T18:54:28.427Z,66.60
2019-03-30T18:59:33.774Z,67.00
2019-03-30T19:04:38.201Z,67.70
2019-03-30T19:09:41.669Z,68.40
2019-03-30T19:14:45.301Z,69.00
2019-03-30T19:19:50.172Z,69.10
2019-03-30T19:24:54.663Z,69.70
2019-03-30T19:29:59.085Z,70.00
2019-03-30T19:35:02.908Z,70.50
2019-03-30T19:40:06.493Z,70.20
2019-03-30T19:45:10.324Z,71.70
2019-03-30T19:50:14.359Z,71.90
2019-03-30T19:55:17.804Z,72.40
2019-03-30T20:00:21.218Z,72.70
2019-03-30T20:05:24.638Z,73.10
2019-03-30T20:10:30.630Z,73.10
2019-03-30T20:15:34.093Z,73.20
2019-03-30T20:20:37.494Z,73.60
2019-03-30T20:25:40.935Z,73.80
2019-03-30T20:30:44.286Z,74.10
2019-03-30T20:35:47.732Z,74.30
2019-03-30T20:40:53.961Z,74.50
2019-03-30T20:45:59.071Z,74.80
2019-03-30T20:51:02.838Z,75.00
2019-03-30T20:56:06.340Z,75.20
2019-03-30T21:01:11.079Z,75.70
2019-03-30T21:06:14.477Z,75.70
2019-03-30T21:11:19.528Z,76.10
2019-03-30T21:16:22.995Z,76.30
2019-03-30T21:21:28.789Z,76.90
2019-03-30T21:26:32.308Z,76.90
2019-03-30T21:31:35.745Z,77.20
2019-03-30T21:36:40.096Z,77.70
2019-03-30T21:41:44.256Z,78.10
2019-03-30T21:46:47.938Z,78.50
2019-03-30T21:51:51.330Z,78.80
2019-03-30T21:56:58.328Z,79.20
2019-03-30T22:02:01.408Z,79.50
2019-03-30T22:07:04.741Z,79.80
2019-03-30T22:12:08.918Z,80.10
2019-03-30T22:17:14.029Z,80.20
2019-03-30T22:22:17.450Z,80.10
2019-03-30T22:27:25.158Z,80.20
2019-03-30T22:32:28.841Z,80.50
2019-03-30T22:37:33.846Z,80.60
2019-03-30T22:42:37.234Z,81.00
2019-03-30T22:47:41.036Z,81.30
2019-03-30T22:52:44.417Z,81.40
2019-03-30T22:57:47.723Z,81.90
2019-03-30T23:02:51.062Z,82.00
2019-03-30T23:07:55.179Z,82.20
2019-03-30T23:12:59.641Z,82.40
2019-03-30T23:18:03.016Z,82.60
2019-03-30T23:23:08.036Z,82.80
2019-03-30T23:28:11.976Z,82.70
2019-03-30T23:33:16.154Z,83.00
2019-03-30T23:38:19.646Z,83.10
2019-03-30T23:43:23.004Z,83.20
2019-03-30T23:48:26.397Z,83.30
2019-03-30T23:53:29.805Z,83.30
2019-03-30T23:58:33.939Z,83.70
